This is the latest recevied weather packets stored in our database for station/object YN1JLX-13. If no packets are shown the sender has not sent any weather packets the latest 10 day(s).
| Time | Temp. | Humidity | Pressure | Rain* | Wind** | Luminosity | Snow |
|---|---|---|---|---|---|---|---|
| 1777829013 | 26.67° C | 52% | 1013 hPa | 0 mm | - | - | - |
| 1777828412 | 26.67° C | 55% | 1013 hPa | 0 mm | - | - | - |
| 1777827812 | 25.56° C | 55% | 1013 hPa | 0 mm | - | - | - |
| 1777827212 | 25.56° C | 55% | 1013 hPa | 0 mm | - | - | - |
| 1777826611 | 26.11° C | 55% | 1013 hPa | 0 mm | - | - | - |
| 1777826011 | 26.11° C | 55% | 1013 hPa | 0 mm | - | - | - |
| 1777825411 | 24.44° C | 59% | 1013 hPa | 0 mm | - | - | - |
| 1777824810 | 24.44° C | 59% | 1013 hPa | 0 mm | - | - | - |
| 1777824210 | 24.44° C | 58% | 1013 hPa | 0 mm | - | - | - |
| 1777823610 | 25° C | 58% | 1013 hPa | 0 mm | - | - | - |
| 1777823009 | 25° C | 58% | 1013 hPa | 0 mm | - | - | - |
| 1777822409 | 26.11° C | 58% | 1013 hPa | 0 mm | - | - | - |
| 1777821809 | 22.78° C | 67% | 1013 hPa | 0 mm | - | - | - |
| 1777821208 | 22.78° C | 67% | 1013 hPa | 0 mm | - | - | - |
| 1777820608 | 23.33° C | 67% | 1013 hPa | 0 mm | - | - | - |
| 1777820007 | 23.33° C | 67% | 1013 hPa | 0 mm | - | - | - |
| 1777819407 | 23.33° C | 67% | 1013 hPa | 0 mm | - | - | - |
| 1777818807 | 23.33° C | 66% | 1013 hPa | 0 mm | - | - | - |
| 1777818206 | 21.67° C | 69% | 1013 hPa | 0 mm | - | - | - |
| 1777817606 | 21.67° C | 67% | 1013 hPa | 0 mm | - | - | - |
| 1777817005 | 22.78° C | 67% | 1013 hPa | 0 mm | - | - | - |
| 1777816405 | 21.67° C | 70% | 1013 hPa | 0 mm | - | - | - |
| 1777815805 | 22.78° C | 70% | 1013 hPa | 0 mm | - | - | - |
| 1777815204 | 21.67° C | 74% | 1013 hPa | 0 mm | - | - | - |
| 1777814604 | 19.44° C | 77% | 1013 hPa | 0 mm | - | - | - |
* Rain latest hour (hover to see other rain measurements)
** Current wind speed in m/s (hover to see current wind gust speed)